Cote D IVoirian Star — A8SL4 — position and weather

sailwx.info

Track history (hours):
 
Tides and Currents Weather Stations Pressure Air Temp Water Temp Dewpoint Dewpoint Depression Visibility Wind Speed Wind Dir Waves Ship Positions

Cote D IVoirian Star

Last reported at 2016-Jun-24 21:20 UTC. Time now 2016-Jun-24 23:58 UTC.
Position N 49°55' W 002°33'.

Length 185 m; draft 7.8 m.

Type: Cargo ship. MMSI: 636014241.

Date/timePositionNaut miles runAvg speedWind from/ knotsBaromVisibWave heightAir tempDewpointWater temp
2016-Jun-24 21:20N 49°55' W 002°33'1519.0
2016-Jun-24 20:33N 49°50' W 002°55'1818.4
2016-Jun-24 19:33N 49°41' W 003°19'10116.9
2016-Jun-24 13:33N 48°48' W 005°32'87017.0
2016-Jun-22 10:24N 35°31' W 013°23'37919.0
2016-Jun-21 14:27N 29°27' W 015°24'1719.1
2016-Jun-21 13:33N 29°10' W 015°30'2119.1
2016-Jun-21 12:28N 28°50' W 015°36'76218.5
2016-Jun-19 19:22N 16°17' W 017°42'3618.6
2016-Jun-19 17:24N 15°41' W 017°40'1619.3
2016-Jun-19 16:34N 15°25' W 017°39'2019.1
2016-Jun-19 15:31N 15°05' W 017°38'1919.2
2016-Jun-19 14:33N 14°46' W 017°37'1514.9
2016-Jun-19 13:33N 14°37' W 017°25'5 4.6
2016-Jun-19 12:32N 14°41' W 017°26'0 0.0
2016-Jun-19 11:29N 14°41' W 017°26'0 0.0
2016-Jun-19 10:32N 14°41' W 017°26'0 0.0
2016-Jun-19 09:29N 14°41' W 017°26'0 0.0
2016-Jun-19 08:33N 14°41' W 017°26'3 3.0
2016-Jun-19 07:33N 14°40' W 017°23'9 8.9
2016-Jun-19 06:33N 14°32' W 017°23'2118.9
2016-Jun-19 05:27N 14°11' W 017°27'1719.0
2016-Jun-19 04:33N 13°54' W 017°28'1919.2
2016-Jun-19 03:33N 13°35' W 017°30'1919.4
2016-Jun-19 02:33N 13°16' W 017°33'  
2016-Jun-16 15:27N 05°13' W 003°59'7 7.5
2016-Jun-16 14:33N 05°19' W 004°01'0 0.0
2016-Jun-16 11:29N 05°19' W 004°01'0 0.0
2016-Jun-16 08:11N 05°19' W 004°01'0 0.0
2016-Jun-15 14:32N 05°19' W 004°02'7 5.4
2016-Jun-15 13:15N 05°13' W 003°59'  
Track history (hours):
 
Tides and Currents Weather Stations Pressure Air Temp Water Temp Dewpoint Dewpoint Depression Visibility Wind Speed Wind Dir Waves Ship Positions

Cote D IVoirian Star

Last reported at 2016-Jun-24 21:20 UTC. Time now 2016-Jun-24 23:58 UTC.
Position N 49°55' W 002°33'.

Length 185 m; draft 7.8 m.

Type: Cargo ship. MMSI: 636014241.

Date/timePositionNaut miles runAvg speedWind from/ knotsBaromVisibWave heightAir tempDewpointWater temp
2016-Jun-24 21:20N 49°55' W 002°33'1519.0
2016-Jun-24 20:33N 49°50' W 002°55'1818.4
2016-Jun-24 19:33N 49°41' W 003°19'10116.9
2016-Jun-24 13:33N 48°48' W 005°32'87017.0
2016-Jun-22 10:24N 35°31' W 013°23'37919.0
2016-Jun-21 14:27N 29°27' W 015°24'1719.1
2016-Jun-21 13:33N 29°10' W 015°30'2119.1
2016-Jun-21 12:28N 28°50' W 015°36'76218.5
2016-Jun-19 19:22N 16°17' W 017°42'3618.6
2016-Jun-19 17:24N 15°41' W 017°40'1619.3
2016-Jun-19 16:34N 15°25' W 017°39'2019.1
2016-Jun-19 15:31N 15°05' W 017°38'1919.2
2016-Jun-19 14:33N 14°46' W 017°37'1514.9
2016-Jun-19 13:33N 14°37' W 017°25'5 4.6
2016-Jun-19 12:32N 14°41' W 017°26'0 0.0
2016-Jun-19 11:29N 14°41' W 017°26'0 0.0
2016-Jun-19 10:32N 14°41' W 017°26'0 0.0
2016-Jun-19 09:29N 14°41' W 017°26'0 0.0
2016-Jun-19 08:33N 14°41' W 017°26'3 3.0
2016-Jun-19 07:33N 14°40' W 017°23'9 8.9
2016-Jun-19 06:33N 14°32' W 017°23'2118.9
2016-Jun-19 05:27N 14°11' W 017°27'1719.0
2016-Jun-19 04:33N 13°54' W 017°28'1919.2
2016-Jun-19 03:33N 13°35' W 017°30'1919.4
2016-Jun-19 02:33N 13°16' W 017°33'  
2016-Jun-16 15:27N 05°13' W 003°59'7 7.5
2016-Jun-16 14:33N 05°19' W 004°01'0 0.0
2016-Jun-16 11:29N 05°19' W 004°01'0 0.0
2016-Jun-16 08:11N 05°19' W 004°01'0 0.0
2016-Jun-15 14:32N 05°19' W 004°02'7 5.4
2016-Jun-15 13:15N 05°13' W 003°59'  

Dump ship's entire track history